LFGJ/DLE METAR and TAF weather

Enter ICAO airport designator
Station Type Date Time Source
LFGJ METAR 2019/02/21 16:30 UTC NOAA

LFGJ 211630Z AUTO 25002KT CAVOK 15/04 Q1029 NOSIG


Station Type Date Time Source
LFGJ Decoded METAR 2019/02/21 16:30 UTC NOAA

Dole Tavaux, France (LFGJ) 47-02-34N 005-26-06E
Feb 21, 2019 - 11:30 AM EST / 2019.02.21 1630 UTC
Wind: from the WSW (250 degrees) at 2 MPH (2 KT):0
Visibility: greater than 7 mile(s):0
Temperature: 59 F (15 C)
Dew Point: 39 F (4 C)
Relative Humidity: 47%
Pressure (altimeter): 30.39 in. Hg (1029 hPa)
ob: LFGJ 211630Z AUTO 25002KT CAVOK 15/04 Q1029 NOSIG
cycle: 16

Station Type Date Time Source
LFGJ TAF 2012/05/01 21:57 UTC NOAA

TAF
AMD TAF
AMD LFGJ 010355Z 3021/0106 18008KT 9999 FEW023 SCT035 BKN050
TEMPO 0102/0103 4000 -SHRA BR FEW012TCU BKN015
BECMG 0103/0104 VRB03KT 0200 FG VV///


Example: see airport list